Gulf Islands National Seasho, Mississippi
Current Conditions -  °F | °C
As of 2:58 AM on Monday 22 Dec 2014 (Local Time) from KBIX Reporting Station
Overcast Overcast  
Wind Chill: 57°   Ceiling: 700
Heat Index: 57°   Visibility: 10mi
Dew Point: 57°   Wind: 5mph
Humidity: 100%   Direction: 70°ENE
Pressure: 29.91"   Gusts: NA
Location:  30.418°N, 88.7558°W
Report Text: KBIX 220858Z AUTO 07004KT 10SM OVC007 14/14 A2991 RMK AO2 SLP132 T01400140 57014
Loading
Personal Weather Stations






























Interactive Weather Map New forecast layout! Learn more

10-Day Weather Forecast

Advertisements
Track Severe Weather on mobile